This is the latest recevied weather packets stored in our database for station/object KN6DHD. If no packets are shown the sender has not sent any weather packets the latest 1 day(s).
| Time | Temp. | Humidity | Pressure | Rain* | Wind** | Luminosity | Snow |
|---|---|---|---|---|---|---|---|
| 1778103810 | 25.56° C | 52% | 1019 hPa | 0 mm | - | 698 W/m² | - |
| 1778103205 | 25.56° C | 53% | 1019.1 hPa | 0 mm | - | 675 W/m² | - |
| 1778102598 | 25.56° C | 54% | 1019.3 hPa | 0 mm | - | 636 W/m² | - |
| 1778102293 | 25.56° C | 52% | 1019.1 hPa | 0 mm | - | 624 W/m² | - |
| 1778101081 | 25.56° C | 52% | 1019.5 hPa | 0 mm | - | 658 W/m² | - |
| 1778099263 | 24.44° C | 54% | 1020 hPa | 0 mm | - | 704 W/m² | - |
| 1778098353 | 23.89° C | 55% | 1020 hPa | 0 mm | - | 691 W/m² | - |
| 1778098050 | 23.33° C | 56% | 1020.2 hPa | 0 mm | - | 701 W/m² | - |
| 1778096533 | 22.22° C | 61% | 1020.5 hPa | 0 mm | - | 475 W/m² | - |
| 1778096231 | 22.22° C | 60% | 1020.6 hPa | 0 mm | - | 305 W/m² | - |
| 1778095018 | 22.22° C | 62% | 1020.6 hPa | 0 mm | - | 779 W/m² | - |
| 1778093805 | 20.56° C | 67% | 1020.9 hPa | 0 mm | - | 592 W/m² | - |
| 1778093501 | 20.56° C | 66% | 1020.7 hPa | 0 mm | - | 622 W/m² | - |
| 1778093199 | 21.11° C | 65% | 1021 hPa | 0 mm | - | 626 W/m² | - |
| 1778092896 | 20.56° C | 69% | 1021.1 hPa | 0 mm | - | 147 W/m² | - |
| 1778092592 | 20.56° C | 67% | 1021.2 hPa | 0 mm | - | 266 W/m² | - |
| 1778092288 | 20.56° C | 68% | 1021 hPa | 0 mm | - | 307 W/m² | - |
| 1778090471 | 18.89° C | 72% | 1021.4 hPa | 0 mm | - | 310 W/m² | - |
| 1778089258 | 18.33° C | 74% | 1021.2 hPa | 0 mm | - | 271 W/m² | - |
| 1778088956 | 18.33° C | 74% | 1021.1 hPa | 0 mm | - | 262 W/m² | - |
| 1778088350 | 17.78° C | 76% | 1021.3 hPa | 0 mm | - | 255 W/m² | - |
| 1778088046 | 18.33° C | 74% | 1021.4 hPa | 0 mm | - | 252 W/m² | - |
| 1778087138 | 17.22° C | 78% | 1021.4 hPa | 0 mm | - | 228 W/m² | - |
| 1778086224 | 16.67° C | 79% | 1021.5 hPa | 0 mm | - | 196 W/m² | - |
| 1778085921 | 16.67° C | 79% | 1021.2 hPa | 0 mm | - | 180 W/m² | - |
* Rain latest hour (hover to see other rain measurements)
** Current wind speed in m/s (hover to see current wind gust speed)